Time;durP1;ratioP1;P1;durP2;ratioP2;P2;SDS_P1;SDS_P2;PMS_P1;PMS_P2;Temp;Humidity;BMP_temperature;BMP_pressure;BME280_temperature;BME280_humidity;BME280_pressure;Samples;Min_cycle;Max_cycle;Signal;HPM_P1;HPM_P2
2022/06/23 00:01:18;;;;;;;8.82;4.30;;;;;;;17.81;55.96;101085.44;5091711;28;20027;-76
2022/06/23 00:03:45;;;;;;;6.13;3.65;;;;;;;17.75;56.62;101078.09;5088411;28;20024;-76
2022/06/23 00:06:34;;;;;;;8.57;4.00;;;;;;;17.80;56.66;101077.63;5096126;28;20382;-75
2022/06/23 00:09:02;;;;;;;8.98;4.20;;;;;;;17.70;57.39;101074.22;5081959;28;20106;-75
2022/06/23 00:11:27;;;;;;;7.60;4.20;;;;;;;17.72;57.58;101077.56;5089578;28;20036;-75
2022/06/23 00:14:09;;;;;;;11.82;4.60;;;;;;;17.71;57.61;101079.38;5089641;28;20059;-75
2022/06/23 00:16:35;;;;;;;7.75;4.60;;;;;;;17.67;58.24;101079.84;5088991;28;20038;-76
2022/06/23 00:19:00;;;;;;;8.40;4.55;;;;;;;17.61;58.79;101067.09;5087897;28;20028;-76
2022/06/23 00:21:33;;;;;;;6.93;4.53;;;;;;;17.59;59.03;101079.72;5093834;28;20490;-77
2022/06/23 00:24:04;;;;;;;10.30;4.90;;;;;;;17.58;59.29;101084.19;5089581;28;20031;-76
2022/06/23 00:26:34;;;;;;;9.35;5.03;;;;;;;17.49;59.86;101080.63;5090914;28;20669;-77
2022/06/23 00:29:11;;;;;;;9.65;5.20;;;;;;;17.52;59.52;101075.00;5083476;28;20081;-77
2022/06/23 00:31:44;;;;;;;13.52;4.90;;;;;;;17.50;60.37;101079.66;5089346;28;20060;-75
2022/06/23 00:34:20;;;;;;;7.47;4.97;;;;;;;17.45;60.47;101079.28;5090320;28;20111;-76
2022/06/23 00:36:50;;;;;;;8.07;4.78;;;;;;;17.45;61.05;101089.91;5088140;28;20031;-76
2022/06/23 00:39:41;;;;;;;10.10;5.25;;;;;;;17.36;61.27;101090.84;5091254;28;20035;-76
2022/06/23 00:42:31;;;;;;;10.88;5.53;;;;;;;17.32;61.45;101081.50;5082663;28;20369;-77
2022/06/23 00:45:06;;;;;;;8.98;5.40;;;;;;;17.26;62.05;101074.13;5089675;28;20024;-77
2022/06/23 00:47:59;;;;;;;8.52;5.47;;;;;;;17.26;61.42;101084.75;5090108;28;20031;-76
2022/06/23 00:50:36;;;;;;;9.07;5.43;;;;;;;17.19;62.75;101078.34;5090166;28;20075;-77
2022/06/23 00:53:04;;;;;;;8.65;5.82;;;;;;;17.08;63.81;101070.59;5087520;28;20384;-77
2022/06/23 00:55:36;;;;;;;10.60;6.32;;;;;;;17.02;64.16;101065.88;5088017;28;20055;-77
2022/06/23 00:58:14;;;;;;;11.60;6.50;;;;;;;17.00;64.54;101050.06;5087800;28;20031;-77
2022/06/23 01:00:42;;;;;;;8.07;6.30;;;;;;;16.92;65.39;101063.28;5088984;28;20042;-77
2022/06/23 01:03:07;;;;;;;11.95;6.70;;;;;;;16.90;65.81;101057.28;5089003;28;20028;-76
2022/06/23 01:05:41;;;;;;;11.30;6.78;;;;;;;16.82;66.12;101055.38;5094757;28;20028;-76
2022/06/23 01:08:21;;;;;;;11.13;7.18;;;;;;;16.84;66.28;101063.19;5089677;28;20548;-76
2022/06/23 01:10:56;;;;;;;11.80;7.03;;;;;;;16.79;66.60;101049.50;5086398;28;20032;-76
2022/06/23 01:13:50;;;;;;;12.30;7.28;;;;;;;16.79;66.40;101046.84;5082049;28;20027;-76
2022/06/23 01:16:40;;;;;;;11.43;7.20;;;;;;;16.76;67.24;101050.63;5082300;28;20115;-76
2022/06/23 01:20:02;;;;;;;9.27;7.20;;;;;;;16.80;66.33;101059.97;5088470;28;20034;-76
2022/06/23 01:22:49;;;;;;;13.57;7.78;;;;;;;16.72;68.12;101064.34;4998416;28;20037;-75
2022/06/23 01:25:33;;;;;;;11.77;7.43;;;;;;;16.69;68.98;101062.84;4996040;28;20109;-76
2022/06/23 01:28:11;;;;;;;10.27;6.95;;;;;;;16.65;69.05;101061.44;5073668;28;20415;-75
2022/06/23 01:31:05;;;;;;;15.43;7.70;;;;;;;16.64;70.03;101059.75;5088464;28;20027;-75
2022/06/23 01:33:52;;;;;;;15.85;7.90;;;;;;;16.61;69.81;101052.09;5082068;28;20039;-75
2022/06/23 01:36:43;;;;;;;11.82;7.80;;;;;;;16.56;70.46;101051.69;5089740;28;20032;-75
2022/06/23 01:39:19;;;;;;;15.15;8.02;;;;;;;16.56;70.91;101062.31;5089812;28;20089;-76
2022/06/23 01:41:52;;;;;;;16.35;7.78;;;;;;;16.55;71.50;101068.63;5088319;28;20487;-75
2022/06/23 01:44:42;;;;;;;15.77;8.25;;;;;;;16.51;71.61;101061.94;5086362;28;20537;-77
2022/06/23 01:47:27;;;;;;;13.40;8.38;;;;;;;16.47;71.42;101060.53;5088737;28;20092;-76
2022/06/23 01:50:18;;;;;;;13.57;8.90;;;;;;;16.44;72.36;101067.00;5088798;28;20145;-76
2022/06/23 01:52:47;;;;;;;13.80;8.45;;;;;;;16.39;72.88;101073.69;5083623;28;20036;-76
2022/06/23 01:55:22;;;;;;;13.98;9.20;;;;;;;16.35;73.02;101057.22;5089032;28;20032;-76
2022/06/23 01:57:55;;;;;;;14.40;9.20;;;;;;;16.32;73.34;101060.16;5088867;28;20072;-76
2022/06/23 02:00:23;;;;;;;17.92;9.63;;;;;;;16.27;73.96;101059.78;5086204;28;20031;-76
2022/06/23 02:02:59;;;;;;;19.05;9.75;;;;;;;16.25;74.07;101054.59;5084819;28;20032;-76
2022/06/23 02:05:46;;;;;;;14.57;9.25;;;;;;;16.22;74.49;101057.56;5088382;28;20028;-76
2022/06/23 02:08:23;;;;;;;12.77;9.30;;;;;;;16.25;74.60;101054.59;5087239;28;20028;-76
2022/06/23 02:11:03;;;;;;;13.07;9.50;;;;;;;16.24;74.33;101054.75;5087253;28;20341;-76
2022/06/23 02:13:41;;;;;;;15.98;9.68;;;;;;;16.21;74.93;101047.91;5087384;28;20028;-77
2022/06/23 02:16:28;;;;;;;13.02;9.30;;;;;;;16.22;74.83;101052.25;5084812;28;20028;-76
2022/06/23 02:19:31;;;;;;;14.77;9.75;;;;;;;16.26;74.47;101058.09;5077002;28;20072;-76
2022/06/23 02:22:10;;;;;;;14.13;9.77;;;;;;;16.20;75.36;101056.84;5081881;28;20122;-76
2022/06/23 02:25:03;;;;;;;17.08;10.07;;;;;;;16.18;74.95;101047.38;5080558;28;20027;-75
2022/06/23 02:27:51;;;;;;;16.88;10.68;;;;;;;16.14;75.25;101044.16;5088592;28;20547;-75
2022/06/23 02:30:39;;;;;;;13.60;10.25;;;;;;;16.10;76.38;101041.94;5087578;28;20142;-75
2022/06/23 02:33:21;;;;;;;13.90;10.10;;;;;;;16.08;75.85;101038.59;5088178;28;20071;-75
2022/06/23 02:35:59;;;;;;;14.87;9.80;;;;;;;16.10;76.37;101042.78;5085139;28;20388;-75
2022/06/23 02:38:38;;;;;;;16.35;10.52;;;;;;;16.15;75.86;101051.16;5088390;28;20313;-75
2022/06/23 02:41:26;;;;;;;12.63;10.20;;;;;;;16.21;75.29;101050.56;5088596;28;20036;-75
2022/06/23 02:44:21;;;;;;;13.32;9.90;;;;;;;16.22;75.57;101051.41;5086529;28;20035;-75
2022/06/23 02:47:04;;;;;;;22.90;10.70;;;;;;;16.14;76.37;101051.28;5067338;28;20050;-75
2022/06/23 02:49:45;;;;;;;16.52;11.02;;;;;;;16.10;76.51;101042.78;5087803;28;20036;-75
2022/06/23 02:52:31;;;;;;;16.23;11.38;;;;;;;16.14;75.83;101046.81;5081368;28;20024;-75
2022/06/23 02:55:47;;;;;;;15.85;10.85;;;;;;;16.13;75.37;101041.66;5084611;28;20055;-75
2022/06/23 02:58:29;;;;;;;18.58;10.57;;;;;;;16.02;76.24;101040.03;5050647;28;20060;-75
2022/06/23 03:01:15;;;;;;;16.13;11.32;;;;;;;15.99;76.12;101034.97;5092601;28;20032;-75
2022/06/23 03:04:23;;;;;;;15.05;10.57;;;;;;;16.00;76.05;101034.00;5092066;28;20024;-75
2022/06/23 03:07:07;;;;;;;20.65;11.25;;;;;;;15.96;76.59;101029.94;5072935;28;20324;-75
2022/06/23 03:09:38;;;;;;;15.02;10.70;;;;;;;15.90;77.11;101027.88;5090847;28;20039;-75
2022/06/23 03:12:31;;;;;;;18.02;10.57;;;;;;;15.86;76.98;101021.19;5092086;28;20024;-75
2022/06/23 03:15:11;;;;;;;12.45;10.73;;;;;;;15.88;76.66;101021.88;5041152;28;20398;-75
2022/06/23 03:17:44;;;;;;;14.25;10.40;;;;;;;15.85;76.91;101022.16;5061278;28;20056;-75
2022/06/23 03:20:22;;;;;;;12.68;10.90;;;;;;;15.82;77.09;101011.84;5060714;28;20039;-75
2022/06/23 03:23:00;;;;;;;17.13;10.73;;;;;;;15.81;76.50;101015.47;5059574;28;20489;-75
2022/06/23 03:25:36;;;;;;;17.88;11.05;;;;;;;15.79;76.74;101012.13;5049257;28;20056;-75
2022/06/23 03:28:11;;;;;;;17.85;10.57;;;;;;;15.71;76.99;101009.34;5059790;28;20090;-75
2022/06/23 03:31:00;;;;;;;16.20;11.15;;;;;;;15.76;76.10;101023.88;5050381;28;20036;-75
2022/06/23 03:33:51;;;;;;;16.50;10.48;;;;;;;15.79;75.95;101022.75;5060150;28;20388;-74
2022/06/23 03:36:34;;;;;;;13.75;10.50;;;;;;;15.83;75.89;101035.56;5061870;28;20013;-76
2022/06/23 03:42:12;;;;;;;14.77;10.63;;;;;;;15.86;75.87;101032.63;5054368;28;20047;-78
2022/06/23 03:45:04;;;;;;;14.03;10.30;;;;;;;15.93;75.15;101040.84;5058983;28;20032;-75
2022/06/23 03:47:43;;;;;;;14.43;10.13;;;;;;;15.86;75.57;101029.97;5059496;28;20518;-75
2022/06/23 03:50:29;;;;;;;14.50;10.00;;;;;;;15.84;75.25;101028.44;5062332;28;20031;-75
2022/06/23 03:53:09;;;;;;;12.63;9.75;;;;;;;15.84;75.33;101023.97;5053056;28;20439;-75
2022/06/23 03:55:44;;;;;;;11.80;9.32;;;;;;;15.84;75.22;101034.59;5058204;28;20395;-75
2022/06/23 03:58:29;;;;;;;13.38;10.07;;;;;;;15.83;75.15;101035.56;5060277;28;20442;-77
2022/06/23 04:00:55;;;;;;;16.75;9.80;;;;;;;15.82;75.27;101027.75;5056437;28;20145;-78
2022/06/23 04:04:03;;;;;;;14.05;9.48;;;;;;;16.10;74.04;101028.69;5056241;28;20512;-75
2022/06/23 04:06:32;;;;;;;13.95;9.63;;;;;;;16.68;72.33;101026.63;5021211;28;20136;-77
2022/06/23 04:09:08;;;;;;;13.00;9.13;;;;;;;17.21;70.12;101024.06;5047665;28;20070;-77
2022/06/23 04:11:45;;;;;;;13.10;8.95;;;;;;;17.81;67.87;101023.38;5058991;28;20052;-77
2022/06/23 04:14:25;;;;;;;14.02;8.95;;;;;;;18.29;66.25;101022.84;5074320;28;20139;-77
2022/06/23 04:17:04;;;;;;;10.27;8.07;;;;;;;18.56;63.88;101005.81;5088454;28;20028;-74
2022/06/23 04:19:31;;;;;;;12.85;8.85;;;;;;;18.43;63.66;101011.59;5085260;28;20043;-77
2022/06/23 04:22:22;;;;;;;12.68;8.60;;;;;;;18.01;64.58;101006.22;5096092;28;20024;-77
2022/06/23 04:24:53;;;;;;;9.82;8.15;;;;;;;17.61;65.25;101000.56;5086074;28;20062;-75
2022/06/23 04:27:24;;;;;;;15.25;8.48;;;;;;;17.21;66.28;101001.91;5090911;28;20035;-77
2022/06/23 04:29:57;;;;;;;12.48;7.53;;;;;;;17.32;66.92;101012.34;5090486;28;20357;-74
2022/06/23 04:32:30;;;;;;;11.07;7.75;;;;;;;17.41;66.66;101022.06;5096761;28;20038;-75
2022/06/23 04:35:04;;;;;;;11.52;7.75;;;;;;;17.48;65.73;101025.75;5090597;28;20024;-77
2022/06/23 04:37:41;;;;;;;10.90;8.30;;;;;;;17.37;65.97;101017.19;5087734;28;20153;-74
2022/06/23 04:40:22;;;;;;;11.68;7.82;;;;;;;17.23;66.31;101019.41;5089565;28;20055;-77
2022/06/23 04:42:57;;;;;;;9.73;7.57;;;;;;;17.27;65.97;101022.59;5083118;28;20024;-75
2022/06/23 04:45:54;;;;;;;11.82;7.38;;;;;;;17.27;65.62;101038.56;5088589;28;20027;-75
2022/06/23 04:48:52;;;;;;;15.15;7.60;;;;;;;17.18;66.10;101021.66;5078039;28;20154;-75
2022/06/23 04:51:23;;;;;;;11.50;7.57;;;;;;;17.03;66.36;101020.53;5073976;28;20627;-75
2022/06/23 04:54:12;;;;;;;13.25;7.72;;;;;;;17.10;66.04;101020.75;5078418;28;20479;-75
2022/06/23 04:56:47;;;;;;;12.77;7.90;;;;;;;17.04;65.93;101011.56;5086020;28;20565;-75
2022/06/23 04:59:18;;;;;;;14.77;7.50;;;;;;;16.99;66.59;101013.00;5086261;28;20077;-75
2022/06/23 05:01:48;;;;;;;12.00;8.18;;;;;;;16.94;66.38;101017.94;5088583;28;20029;-75
2022/06/23 05:04:29;;;;;;;13.88;8.30;;;;;;;17.01;66.32;101021.66;5092114;28;20493;-77
2022/06/23 05:06:57;;;;;;;11.60;7.32;;;;;;;17.01;66.25;101024.31;5087884;28;20023;-74
2022/06/23 05:09:38;;;;;;;13.18;8.05;;;;;;;17.08;66.17;101020.06;5086899;28;20107;-75
2022/06/23 05:12:21;;;;;;;12.93;7.63;;;;;;;17.03;66.22;101020.53;5088028;28;20078;-76
2022/06/23 05:14:53;;;;;;;14.32;7.80;;;;;;;17.01;66.09;101024.31;5086904;28;20131;-77
2022/06/23 05:17:29;;;;;;;11.73;7.40;;;;;;;17.10;66.01;101026.06;5091061;28;20028;-77
2022/06/23 05:19:58;;;;;;;13.57;7.78;;;;;;;17.06;66.10;101024.72;5087874;28;20035;-77
2022/06/23 05:22:32;;;;;;;10.52;7.60;;;;;;;17.07;65.77;101026.38;5089375;28;20020;-77
2022/06/23 05:25:07;;;;;;;11.23;7.35;;;;;;;17.06;65.63;101019.38;5093982;28;20048;-77
2022/06/23 05:27:35;;;;;;;10.32;7.18;;;;;;;17.07;65.35;101016.56;5097346;28;20447;-77
2022/06/23 05:30:31;;;;;;;13.25;7.50;;;;;;;17.17;65.66;101012.00;5093455;28;20028;-77
2022/06/23 05:33:43;;;;;;;11.93;7.43;;;;;;;17.27;64.98;101027.91;5087453;28;20065;-77
2022/06/23 05:36:31;;;;;;;9.95;6.60;;;;;;;17.34;64.66;101025.47;5088620;28;20052;-77
2022/06/23 05:39:06;;;;;;;13.35;7.57;;;;;;;17.47;64.27;101029.41;5088696;28;20020;-77
2022/06/23 05:41:45;;;;;;;12.40;7.70;;;;;;;17.52;64.24;101021.81;5082366;28;20042;-77
2022/06/23 05:44:23;;;;;;;11.73;7.65;;;;;;;17.62;64.11;101015.56;5088646;28;20028;-76
2022/06/23 05:46:54;;;;;;;13.93;7.63;;;;;;;17.70;63.87;101008.50;5085138;28;20370;-76
2022/06/23 05:49:30;;;;;;;10.85;7.10;;;;;;;17.82;63.13;101017.06;5076514;28;20020;-75
2022/06/23 05:52:06;;;;;;;9.68;6.80;;;;;;;17.93;63.28;101022.13;5082817;28;20076;-76
2022/06/23 05:54:38;;;;;;;9.75;7.22;;;;;;;18.01;62.61;101019.53;5084666;28;20035;-75
2022/06/23 05:57:36;;;;;;;11.30;7.15;;;;;;;18.14;61.66;101027.09;5083947;28;20031;-75
2022/06/23 06:00:41;;;;;;;10.93;6.82;;;;;;;18.27;61.86;101030.16;5071149;28;20048;-75
2022/06/23 06:03:35;;;;;;;13.20;7.18;;;;;;;18.36;61.17;101018.53;5064383;28;20051;-75
2022/06/23 06:06:04;;;;;;;10.45;7.18;;;;;;;18.50;61.11;101021.59;5065963;28;20033;-75
2022/06/23 06:11:49;;;;;;;11.60;7.10;;;;;;;18.64;60.93;101013.84;5083613;28;20454;-75
2022/06/23 06:14:20;;;;;;;10.88;7.75;;;;;;;18.75;60.60;101018.03;5080895;28;20478;-75
2022/06/23 06:16:46;;;;;;;13.70;7.32;;;;;;;18.85;60.07;101007.25;5072420;28;20546;-75
2022/06/23 06:19:22;;;;;;;14.07;7.15;;;;;;;18.91;60.48;101003.94;5087175;28;20051;-75
2022/06/23 06:21:53;;;;;;;12.43;6.93;;;;;;;19.04;59.77;101005.13;5079299;28;20791;-76
2022/06/23 06:24:50;;;;;;;10.73;7.35;;;;;;;19.10;60.20;100999.13;5086320;28;20027;-75
2022/06/23 06:27:17;;;;;;;10.07;6.57;;;;;;;19.28;59.94;101006.16;5082625;28;20104;-76
2022/06/23 06:29:44;;;;;;;13.48;6.97;;;;;;;19.33;59.43;101011.81;5086651;28;20463;-76
2022/06/23 06:32:29;;;;;;;20.17;7.53;;;;;;;19.47;59.97;101021.00;5092340;28;20062;-76
2022/06/23 06:35:07;;;;;;;18.27;7.53;;;;;;;19.59;58.65;101027.69;5090710;28;20023;-76
2022/06/23 06:37:38;;;;;;;11.77;7.00;;;;;;;19.69;59.34;101026.53;5092930;28;20524;-76
2022/06/23 06:40:04;;;;;;;10.20;6.20;;;;;;;19.82;58.80;101014.50;5091443;28;20020;-75
2022/06/23 06:42:36;;;;;;;14.40;7.00;;;;;;;19.97;57.91;101018.97;5092062;28;20084;-75
2022/06/23 06:45:05;;;;;;;12.35;6.85;;;;;;;20.05;57.65;101011.97;5091505;28;20084;-76
2022/06/23 06:47:35;;;;;;;16.23;6.47;;;;;;;20.16;57.40;101011.59;5092531;28;20052;-75
2022/06/23 06:50:05;;;;;;;13.20;6.28;;;;;;;20.25;57.55;101003.34;5090982;28;20422;-77
2022/06/23 06:52:32;;;;;;;12.75;6.32;;;;;;;20.41;56.86;101010.50;5091789;28;20496;-77
2022/06/23 06:55:21;;;;;;;12.55;6.80;;;;;;;20.54;57.01;101010.81;5092654;28;20028;-76
2022/06/23 06:57:54;;;;;;;11.13;6.60;;;;;;;20.63;56.36;101014.25;5084099;28;20549;-77
2022/06/23 07:00:38;;;;;;;12.05;5.97;;;;;;;20.81;56.41;101012.19;5091563;28;20040;-77
2022/06/23 07:03:08;;;;;;;16.08;6.50;;;;;;;20.96;55.64;101009.56;5107992;27;20122;-77
2022/06/23 07:06:06;;;;;;;9.18;5.97;;;;;;;21.16;55.96;101026.81;5098505;28;20028;-76
2022/06/23 07:08:37;;;;;;;14.13;6.78;;;;;;;21.43;54.53;101020.13;5076224;28;20043;-76
2022/06/23 07:11:26;;;;;;;13.07;6.50;;;;;;;21.72;54.60;101030.09;5091424;28;20455;-76
2022/06/23 07:14:05;;;;;;;13.73;6.45;;;;;;;22.03;53.86;101021.09;5092729;28;20044;-76
2022/06/23 07:16:59;;;;;;;8.45;5.43;;;;;;;22.33;54.19;101014.72;5101419;28;20130;-77
2022/06/23 07:19:40;;;;;;;10.05;5.68;;;;;;;22.65;53.54;101015.31;5090273;28;20020;-76
2022/06/23 07:22:11;;;;;;;12.27;6.22;;;;;;;22.94;53.07;101007.25;5091334;28;20019;-77
2022/06/23 07:24:50;;;;;;;12.48;5.85;;;;;;;23.26;53.02;101005.09;5090235;28;20272;-77
2022/06/23 07:27:54;;;;;;;15.00;6.80;;;;;;;23.52;52.88;101008.00;5107035;28;20031;-78
2022/06/23 07:30:27;;;;;;;16.50;6.90;;;;;;;23.70;52.05;101005.69;5086841;28;20032;-77
2022/06/23 07:33:04;;;;;;;13.35;7.32;;;;;;;23.88;52.23;101007.88;5108922;28;20023;-77
2022/06/23 07:35:48;;;;;;;11.30;6.38;;;;;;;24.02;52.14;101000.75;5111203;28;20027;-77
2022/06/23 07:38:33;;;;;;;14.07;6.75;;;;;;;24.37;52.67;101002.41;5113369;28;20030;-77
2022/06/23 07:41:15;;;;;;;9.32;6.13;;;;;;;24.61;51.98;101003.75;5072632;28;20472;-77
2022/06/23 07:43:58;;;;;;;10.95;6.13;;;;;;;24.89;51.50;100997.44;5069811;28;20476;-76
2022/06/23 07:46:23;;;;;;;11.40;6.45;;;;;;;24.85;51.08;100991.63;5072184;28;20020;-76
2022/06/23 07:48:49;;;;;;;13.68;6.00;;;;;;;25.22;49.99;100998.34;5070960;28;20035;-77
2022/06/23 07:51:14;;;;;;;10.75;6.35;;;;;;;25.38;49.94;100994.41;5072614;28;20127;-78
2022/06/23 07:53:44;;;;;;;10.73;6.15;;;;;;;25.47;50.45;100997.72;5071304;28;20071;-80
2022/06/23 07:56:14;;;;;;;14.40;6.60;;;;;;;25.59;50.60;100988.78;5077522;28;20024;-78
2022/06/23 07:58:42;;;;;;;11.27;6.22;;;;;;;25.76;49.94;100994.63;5071915;28;20032;-79
2022/06/23 08:01:29;;;;;;;15.73;6.25;;;;;;;26.02;49.89;100993.78;5071758;28;20035;-78
2022/06/23 08:04:23;;;;;;;10.20;5.70;;;;;;;26.03;50.76;101000.81;5083271;28;20457;-78
2022/06/23 08:06:49;;;;;;;9.98;6.22;;;;;;;25.99;50.24;100991.47;5087574;28;20369;-78
2022/06/23 08:09:40;;;;;;;13.57;6.72;;;;;;;26.10;51.03;101001.63;5092002;28;20031;-78
2022/06/23 08:18:30;;;;;;;12.40;5.43;;;;;;;26.73;50.05;100982.91;5090807;28;20413;-78
2022/06/23 08:21:10;;;;;;;14.52;6.57;;;;;;;26.74;49.70;100975.63;5089837;28;20024;-78
2022/06/23 08:23:44;;;;;;;18.15;5.68;;;;;;;26.86;49.85;100982.03;5089933;28;20107;-78
2022/06/23 08:26:11;;;;;;;10.73;5.07;;;;;;;27.04;49.02;100976.72;5089451;28;20028;-78
2022/06/23 08:28:38;;;;;;;10.25;5.78;;;;;;;27.03;48.51;100974.25;5081598;28;20032;-78
2022/06/23 08:31:04;;;;;;;13.27;4.75;;;;;;;27.19;49.39;100973.69;5075823;28;20486;-78
2022/06/23 08:33:33;;;;;;;10.60;4.88;;;;;;;27.33;49.02;100972.56;5070239;28;20028;-78
2022/06/23 08:36:11;;;;;;;10.45;5.13;;;;;;;27.50;48.52;100974.69;5070194;28;20021;-78
2022/06/23 08:38:55;;;;;;;10.10;4.72;;;;;;;27.55;48.37;100978.41;5081467;28;20016;-79
2022/06/23 08:41:52;;;;;;;15.80;4.78;;;;;;;27.69;48.44;100979.16;5106149;28;20025;-79
2022/06/23 08:44:48;;;;;;;13.48;5.50;;;;;;;27.72;48.45;100978.69;5117448;28;20035;-78
2022/06/23 08:47:51;;;;;;;8.95;4.45;;;;;;;27.80;47.76;100978.41;5126601;28;20022;-81
2022/06/23 08:50:39;;;;;;;11.75;4.28;;;;;;;28.01;47.52;100977.94;5077884;28;20029;-77
2022/06/23 08:53:43;;;;;;;13.93;3.55;;;;;;;28.28;47.67;100983.94;5128114;28;20068;-78
2022/06/23 08:56:26;;;;;;;11.73;4.53;;;;;;;28.38;46.15;100977.97;5122599;28;20054;-78
2022/06/23 08:59:14;;;;;;;10.50;4.30;;;;;;;28.33;46.78;100980.53;5115193;28;20049;-78
2022/06/23 09:01:52;;;;;;;14.02;4.40;;;;;;;28.45;46.85;100973.31;5126532;28;20047;-77
2022/06/23 09:04:46;;;;;;;12.30;3.75;;;;;;;28.58;46.06;100969.63;5133507;28;20023;-77
2022/06/23 09:07:49;;;;;;;9.25;3.65;;;;;;;28.81;45.95;100968.84;5136767;28;20042;-81
2022/06/23 09:10:21;;;;;;;10.82;3.95;;;;;;;28.78;45.03;100961.19;5136151;28;20012;-82
2022/06/23 09:12:55;;;;;;;9.87;3.43;;;;;;;28.82;46.07;100973.22;5130303;28;20008;-80
2022/06/23 09:15:29;;;;;;;11.93;3.95;;;;;;;28.80;46.26;100968.03;5126961;28;20103;-78
2022/06/23 09:18:25;;;;;;;11.65;3.15;;;;;;;28.95;46.75;100967.66;5135606;28;20026;-78
2022/06/23 09:21:06;;;;;;;12.27;3.60;;;;;;;28.92;47.03;100962.69;5107120;28;20052;-79
2022/06/23 09:23:46;;;;;;;15.02;5.25;;;;;;;28.87;47.27;100960.69;5127135;28;20015;-80
2022/06/23 09:26:36;;;;;;;11.20;3.17;;;;;;;28.98;47.52;100967.19;5118381;28;20016;-78
2022/06/23 09:29:26;;;;;;;10.68;3.55;;;;;;;28.96;47.86;100953.88;5126980;28;20020;-78
2022/06/23 09:32:06;;;;;;;11.45;3.90;;;;;;;28.99;46.99;100952.59;5122446;28;20023;-78
2022/06/23 09:34:50;;;;;;;11.38;3.78;;;;;;;29.06;47.63;100950.59;5102462;28;20019;-79
2022/06/23 09:37:46;;;;;;;10.63;3.70;;;;;;;29.13;47.45;100947.78;5135335;28;20030;-79
2022/06/23 09:40:22;;;;;;;13.05;3.38;;;;;;;29.20;47.00;100949.31;5133254;28;20322;-78
2022/06/23 09:43:24;;;;;;;17.05;4.13;;;;;;;29.36;46.77;100957.81;5134415;28;20019;-79
2022/06/23 09:46:09;;;;;;;11.70;3.95;;;;;;;29.46;46.80;100948.06;5100592;28;20038;-78
2022/06/23 09:48:45;;;;;;;12.13;3.92;;;;;;;29.51;46.31;100950.06;5077542;28;20034;-77
2022/06/23 09:51:32;;;;;;;17.10;4.63;;;;;;;29.47;46.09;100938.88;5111004;28;20110;-78
2022/06/23 09:54:19;;;;;;;15.05;5.03;;;;;;;29.72;45.80;100946.78;5110444;28;20071;-77
2022/06/23 09:57:03;;;;;;;12.77;3.95;;;;;;;29.65;45.14;100940.66;5082146;28;20035;-76
2022/06/23 09:59:40;;;;;;;14.02;4.40;;;;;;;29.79;45.30;100942.06;5101860;28;20060;-77
2022/06/23 10:02:06;;;;;;;13.52;4.28;;;;;;;30.03;45.42;100936.63;5091953;28;20506;-77
2022/06/23 10:04:40;;;;;;;12.70;4.72;;;;;;;29.74;44.89;100944.66;5092294;28;20035;-78
2022/06/23 10:07:17;;;;;;;13.02;4.45;;;;;;;29.68;46.02;100947.50;5079998;28;20020;-78
2022/06/23 10:10:27;;;;;;;13.85;4.50;;;;;;;29.58;46.26;100943.47;5074277;28;20024;-77
2022/06/23 10:13:22;;;;;;;13.93;4.18;;;;;;;29.64;47.20;100936.28;5075261;28;20434;-77
2022/06/23 10:16:27;;;;;;;13.77;4.45;;;;;;;29.53;46.82;100931.69;5075796;28;20620;-78
2022/06/23 10:19:01;;;;;;;13.93;5.03;;;;;;;29.33;45.82;100934.72;5086755;28;20059;-78
2022/06/23 10:21:32;;;;;;;12.32;4.57;;;;;;;29.21;46.74;100931.16;5081197;28;20016;-78
2022/06/23 10:24:19;;;;;;;13.27;5.20;;;;;;;29.09;48.14;100936.56;5069486;28;20112;-79
2022/06/23 10:26:59;;;;;;;11.15;4.10;;;;;;;29.47;47.33;100928.03;5079234;28;20052;-78
2022/06/23 10:30:02;;;;;;;11.70;4.22;;;;;;;29.69;47.24;100939.13;5075427;28;20030;-79
2022/06/23 10:32:28;;;;;;;11.43;4.15;;;;;;;29.66;44.92;100934.16;5089739;28;20024;-77
2022/06/23 10:35:18;;;;;;;13.02;3.80;;;;;;;29.77;45.51;100933.31;5091218;28;20036;-79
2022/06/23 10:38:09;;;;;;;12.80;3.78;;;;;;;30.10;45.04;100924.56;5107531;28;20035;-79
2022/06/23 10:41:07;;;;;;;8.15;3.45;;;;;;;30.05;44.17;100918.22;5085685;28;20028;-79
2022/06/23 10:43:35;;;;;;;10.20;3.30;;;;;;;30.12;43.09;100919.72;5058208;28;20039;-77
2022/06/23 10:46:13;;;;;;;11.32;3.35;;;;;;;30.07;43.70;100927.75;5087521;28;20032;-78
2022/06/23 10:48:54;;;;;;;11.88;3.67;;;;;;;30.08;43.21;100917.72;5088019;28;20086;-79
2022/06/23 10:51:58;;;;;;;9.25;3.80;;;;;;;30.13;42.89;100913.22;5089712;28;20039;-77
2022/06/23 10:54:53;;;;;;;10.60;3.75;;;;;;;30.17;42.98;100903.53;5082335;28;20480;-78
2022/06/23 10:57:31;;;;;;;9.98;3.30;;;;;;;30.38;42.77;100910.16;5063449;28;20557;-79
2022/06/23 11:00:05;;;;;;;9.48;3.40;;;;;;;30.48;42.43;100902.22;5087115;28;20032;-79
2022/06/23 11:03:01;;;;;;;11.15;3.63;;;;;;;30.50;42.89;100900.09;5088580;28;20035;-77
2022/06/23 11:06:10;;;;;;;9.18;3.65;;;;;;;30.64;43.18;100892.47;5088408;28;20485;-78
2022/06/23 11:08:53;;;;;;;14.63;3.83;;;;;;;30.96;41.89;100898.19;5082907;28;20032;-79
2022/06/23 11:11:36;;;;;;;14.73;4.20;;;;;;;30.93;42.10;100901.41;5081025;28;20365;-77
2022/06/23 11:14:24;;;;;;;11.20;3.75;;;;;;;30.76;42.59;100889.69;5088612;28;20052;-77
2022/06/23 11:17:17;;;;;;;13.73;3.97;;;;;;;30.62;42.50;100896.50;5077141;28;20092;-79
2022/06/23 11:20:07;;;;;;;11.32;3.65;;;;;;;30.54;42.42;100887.66;5084554;28;20032;-76
2022/06/23 11:22:50;;;;;;;11.63;3.90;;;;;;;30.73;42.63;100892.91;5084962;28;20027;-79
2022/06/23 11:25:49;;;;;;;13.43;4.32;;;;;;;30.81;41.72;100887.03;5080124;28;20382;-78
2022/06/23 11:28:14;;;;;;;8.23;4.00;;;;;;;30.98;40.63;100890.63;5075177;28;20024;-79
2022/06/23 11:30:57;;;;;;;13.40;4.15;;;;;;;31.04;40.96;100888.78;5073354;28;20078;-78
2022/06/23 11:33:46;;;;;;;13.82;4.45;;;;;;;31.22;41.78;100885.88;5076865;28;20028;-79
2022/06/23 11:36:37;;;;;;;12.63;4.18;;;;;;;31.26;41.76;100897.06;5087298;28;20099;-79
2022/06/23 11:39:23;;;;;;;12.27;4.33;;;;;;;30.75;42.42;100888.03;5093936;28;20396;-83
2022/06/23 11:42:10;;;;;;;11.82;4.80;;;;;;;30.67;42.70;100899.31;5081915;28;20819;-78
2022/06/23 11:45:03;;;;;;;12.73;4.45;;;;;;;30.95;42.56;100895.72;5086279;28;20082;-77
2022/06/23 11:47:49;;;;;;;14.32;4.40;;;;;;;31.22;42.60;100895.88;5082895;28;20091;-76
2022/06/23 11:50:39;;;;;;;13.23;4.15;;;;;;;31.03;40.68;100887.16;5080941;28;20031;-76
2022/06/23 11:53:25;;;;;;;10.55;3.95;;;;;;;31.03;41.25;100871.66;5076470;28;20111;-79
2022/06/23 11:56:01;;;;;;;13.48;4.07;;;;;;;31.22;41.56;100872.28;5083502;28;20016;-77
2022/06/23 11:58:48;;;;;;;14.15;4.53;;;;;;;31.57;42.68;100866.47;5088035;28;20040;-77
2022/06/23 12:01:17;;;;;;;8.73;3.67;;;;;;;31.57;41.18;100871.09;5090406;28;20027;-78
2022/06/23 12:04:17;;;;;;;11.18;3.58;;;;;;;31.73;41.59;100868.38;5087043;28;20434;-78
2022/06/23 12:06:56;;;;;;;9.57;4.32;;;;;;;31.41;41.15;100872.81;5086867;28;20782;-77
2022/06/23 12:09:47;;;;;;;9.60;3.83;;;;;;;31.38;41.65;100871.41;5085548;28;20396;-78
2022/06/23 12:12:13;;;;;;;10.40;3.58;;;;;;;31.46;40.02;100867.44;5085183;28;20023;-77
2022/06/23 12:14:38;;;;;;;14.10;3.90;;;;;;;31.78;40.79;100875.78;5084187;28;20048;-77
2022/06/23 12:17:13;;;;;;;11.10;3.78;;;;;;;31.61;39.81;100869.53;5088838;28;20023;-77
2022/06/23 12:20:02;;;;;;;5.50;3.33;;;;;;;31.63;40.50;100872.84;5089785;28;20042;-82
2022/06/23 12:22:41;;;;;;;9.25;3.60;;;;;;;31.44;40.47;100862.25;5089208;28;20122;-78
2022/06/23 12:25:22;;;;;;;9.80;3.72;;;;;;;31.36;40.52;100867.28;5083165;28;20031;-81
2022/06/23 12:28:09;;;;;;;11.95;3.80;;;;;;;31.21;41.28;100864.34;5087581;28;20041;-77
2022/06/23 12:30:42;;;;;;;9.43;3.30;;;;;;;31.37;41.09;100866.22;5085337;28;20024;-77
2022/06/23 12:33:22;;;;;;;13.18;3.90;;;;;;;31.61;41.26;100851.28;5097864;28;20036;-82